sensor_id;sensor_type;location;lat;lon;timestamp;P1;durP1;ratioP1;P2;durP2;ratioP2
19084;SDS011;9675;51.538;6.728;2022-11-21T00:00:59;7.97;;;3.17;;
19084;SDS011;9675;51.538;6.728;2022-11-21T00:03:27;6.60;;;3.17;;
19084;SDS011;9675;51.538;6.728;2022-11-21T00:05:54;7.57;;;2.57;;
19084;SDS011;9675;51.538;6.728;2022-11-21T00:08:21;10.40;;;4.97;;
19084;SDS011;9675;51.538;6.728;2022-11-21T00:10:49;10.37;;;5.23;;
19084;SDS011;9675;51.538;6.728;2022-11-21T00:13:16;11.47;;;5.27;;
19084;SDS011;9675;51.538;6.728;2022-11-21T00:15:47;10.43;;;5.63;;
19084;SDS011;9675;51.538;6.728;2022-11-21T00:18:14;14.57;;;6.40;;
19084;SDS011;9675;51.538;6.728;2022-11-21T00:20:42;10.00;;;4.30;;
19084;SDS011;9675;51.538;6.728;2022-11-21T00:23:09;10.30;;;4.63;;
19084;SDS011;9675;51.538;6.728;2022-11-21T00:25:37;14.33;;;5.70;;
19084;SDS011;9675;51.538;6.728;2022-11-21T00:28:04;7.80;;;4.17;;
19084;SDS011;9675;51.538;6.728;2022-11-21T00:30:32;15.67;;;6.57;;
19084;SDS011;9675;51.538;6.728;2022-11-21T00:33:00;10.23;;;5.00;;
19084;SDS011;9675;51.538;6.728;2022-11-21T00:35:27;10.37;;;5.67;;
19084;SDS011;9675;51.538;6.728;2022-11-21T00:37:56;9.30;;;4.40;;
19084;SDS011;9675;51.538;6.728;2022-11-21T00:40:23;11.70;;;4.83;;
19084;SDS011;9675;51.538;6.728;2022-11-21T00:42:50;8.90;;;3.40;;
19084;SDS011;9675;51.538;6.728;2022-11-21T00:45:17;11.03;;;5.57;;
19084;SDS011;9675;51.538;6.728;2022-11-21T00:47:44;9.53;;;4.50;;
19084;SDS011;9675;51.538;6.728;2022-11-21T00:50:12;12.60;;;5.27;;
19084;SDS011;9675;51.538;6.728;2022-11-21T00:52:39;16.50;;;5.90;;
19084;SDS011;9675;51.538;6.728;2022-11-21T00:55:06;10.83;;;6.80;;
19084;SDS011;9675;51.538;6.728;2022-11-21T00:57:34;15.27;;;5.90;;
19084;SDS011;9675;51.538;6.728;2022-11-21T01:00:02;12.87;;;4.80;;
19084;SDS011;9675;51.538;6.728;2022-11-21T01:02:30;15.83;;;5.67;;
19084;SDS011;9675;51.538;6.728;2022-11-21T01:04:58;14.37;;;4.77;;
19084;SDS011;9675;51.538;6.728;2022-11-21T01:07:26;11.43;;;3.93;;
19084;SDS011;9675;51.538;6.728;2022-11-21T01:09:53;17.07;;;5.40;;
19084;SDS011;9675;51.538;6.728;2022-11-21T01:12:20;13.87;;;5.00;;
19084;SDS011;9675;51.538;6.728;2022-11-21T01:14:47;11.20;;;5.47;;
19084;SDS011;9675;51.538;6.728;2022-11-21T01:17:15;10.67;;;4.93;;
19084;SDS011;9675;51.538;6.728;2022-11-21T01:19:42;11.30;;;4.43;;
19084;SDS011;9675;51.538;6.728;2022-11-21T01:22:09;8.63;;;4.30;;
19084;SDS011;9675;51.538;6.728;2022-11-21T01:24:37;10.23;;;5.20;;
19084;SDS011;9675;51.538;6.728;2022-11-21T01:27:04;9.43;;;5.17;;
19084;SDS011;9675;51.538;6.728;2022-11-21T01:29:31;20.47;;;6.23;;
19084;SDS011;9675;51.538;6.728;2022-11-21T01:31:58;11.57;;;4.43;;
19084;SDS011;9675;51.538;6.728;2022-11-21T01:34:25;16.00;;;5.60;;
19084;SDS011;9675;51.538;6.728;2022-11-21T01:36:52;4.57;;;2.73;;
19084;SDS011;9675;51.538;6.728;2022-11-21T01:39:19;9.60;;;3.93;;
19084;SDS011;9675;51.538;6.728;2022-11-21T01:41:48;15.27;;;6.20;;
19084;SDS011;9675;51.538;6.728;2022-11-21T01:44:16;13.50;;;7.23;;
19084;SDS011;9675;51.538;6.728;2022-11-21T01:46:45;14.77;;;6.30;;
19084;SDS011;9675;51.538;6.728;2022-11-21T01:49:15;10.57;;;5.30;;
19084;SDS011;9675;51.538;6.728;2022-11-21T01:51:46;9.70;;;5.23;;
19084;SDS011;9675;51.538;6.728;2022-11-21T01:54:21;10.33;;;5.03;;
19084;SDS011;9675;51.538;6.728;2022-11-21T01:56:57;14.50;;;5.23;;
19084;SDS011;9675;51.538;6.728;2022-11-21T01:59:31;10.53;;;4.90;;
19084;SDS011;9675;51.538;6.728;2022-11-21T02:02:05;13.47;;;4.77;;
19084;SDS011;9675;51.538;6.728;2022-11-21T02:04:35;7.00;;;3.73;;
19084;SDS011;9675;51.538;6.728;2022-11-21T02:07:07;7.93;;;3.30;;
19084;SDS011;9675;51.538;6.728;2022-11-21T02:09:37;8.80;;;4.97;;
19084;SDS011;9675;51.538;6.728;2022-11-21T02:12:12;8.27;;;4.07;;
19084;SDS011;9675;51.538;6.728;2022-11-21T02:14:46;9.13;;;4.33;;
19084;SDS011;9675;51.538;6.728;2022-11-21T02:17:16;9.00;;;3.97;;
19084;SDS011;9675;51.538;6.728;2022-11-21T02:19:46;12.27;;;5.17;;
19084;SDS011;9675;51.538;6.728;2022-11-21T02:22:22;4.73;;;2.87;;
19084;SDS011;9675;51.538;6.728;2022-11-21T02:25:04;7.53;;;3.67;;
19084;SDS011;9675;51.538;6.728;2022-11-21T02:27:33;6.73;;;3.27;;
19084;SDS011;9675;51.538;6.728;2022-11-21T02:30:01;13.33;;;5.87;;
19084;SDS011;9675;51.538;6.728;2022-11-21T02:32:33;8.27;;;2.63;;
19084;SDS011;9675;51.538;6.728;2022-11-21T02:35:02;9.77;;;4.70;;
19084;SDS011;9675;51.538;6.728;2022-11-21T02:37:30;8.50;;;4.60;;
19084;SDS011;9675;51.538;6.728;2022-11-21T02:43:33;11.13;;;5.03;;
19084;SDS011;9675;51.538;6.728;2022-11-21T02:46:06;13.70;;;5.00;;
19084;SDS011;9675;51.538;6.728;2022-11-21T02:48:34;10.13;;;4.37;;
19084;SDS011;9675;51.538;6.728;2022-11-21T02:51:03;6.63;;;3.90;;
19084;SDS011;9675;51.538;6.728;2022-11-21T02:53:30;11.07;;;5.13;;
19084;SDS011;9675;51.538;6.728;2022-11-21T02:55:57;13.10;;;5.20;;
19084;SDS011;9675;51.538;6.728;2022-11-21T02:58:24;7.60;;;4.50;;
19084;SDS011;9675;51.538;6.728;2022-11-21T03:00:52;9.20;;;4.40;;
19084;SDS011;9675;51.538;6.728;2022-11-21T03:03:20;10.80;;;4.53;;
19084;SDS011;9675;51.538;6.728;2022-11-21T03:05:47;10.87;;;5.60;;
19084;SDS011;9675;51.538;6.728;2022-11-21T03:08:14;9.60;;;5.23;;
19084;SDS011;9675;51.538;6.728;2022-11-21T03:10:41;11.10;;;5.03;;
19084;SDS011;9675;51.538;6.728;2022-11-21T03:13:08;8.87;;;4.83;;
19084;SDS011;9675;51.538;6.728;2022-11-21T03:15:35;7.60;;;3.97;;
19084;SDS011;9675;51.538;6.728;2022-11-21T03:18:03;8.03;;;4.70;;
19084;SDS011;9675;51.538;6.728;2022-11-21T03:20:31;8.23;;;3.77;;
19084;SDS011;9675;51.538;6.728;2022-11-21T03:22:59;8.30;;;4.47;;
19084;SDS011;9675;51.538;6.728;2022-11-21T03:25:27;16.43;;;5.07;;
19084;SDS011;9675;51.538;6.728;2022-11-21T03:27:55;12.63;;;5.37;;
19084;SDS011;9675;51.538;6.728;2022-11-21T03:30:23;10.03;;;4.33;;
19084;SDS011;9675;51.538;6.728;2022-11-21T03:32:53;8.40;;;4.20;;
19084;SDS011;9675;51.538;6.728;2022-11-21T03:35:23;9.70;;;4.87;;
19084;SDS011;9675;51.538;6.728;2022-11-21T03:37:51;10.97;;;4.67;;
19084;SDS011;9675;51.538;6.728;2022-11-21T03:40:18;16.63;;;6.57;;
19084;SDS011;9675;51.538;6.728;2022-11-21T03:42:45;13.70;;;4.30;;
19084;SDS011;9675;51.538;6.728;2022-11-21T03:45:12;12.07;;;4.97;;
19084;SDS011;9675;51.538;6.728;2022-11-21T03:47:39;10.77;;;5.50;;
19084;SDS011;9675;51.538;6.728;2022-11-21T03:50:06;9.90;;;4.63;;
19084;SDS011;9675;51.538;6.728;2022-11-21T03:52:36;9.07;;;4.30;;
19084;SDS011;9675;51.538;6.728;2022-11-21T03:55:03;12.47;;;4.80;;
19084;SDS011;9675;51.538;6.728;2022-11-21T03:57:31;13.90;;;5.60;;
19084;SDS011;9675;51.538;6.728;2022-11-21T03:59:58;11.70;;;5.27;;
19084;SDS011;9675;51.538;6.728;2022-11-21T04:02:25;7.90;;;4.37;;
19084;SDS011;9675;51.538;6.728;2022-11-21T04:04:52;8.90;;;4.70;;
19084;SDS011;9675;51.538;6.728;2022-11-21T04:07:19;18.80;;;6.63;;
19084;SDS011;9675;51.538;6.728;2022-11-21T04:09:47;9.30;;;5.07;;
19084;SDS011;9675;51.538;6.728;2022-11-21T04:12:14;6.20;;;3.80;;
19084;SDS011;9675;51.538;6.728;2022-11-21T04:14:41;10.00;;;5.00;;
19084;SDS011;9675;51.538;6.728;2022-11-21T04:17:08;8.40;;;4.30;;
19084;SDS011;9675;51.538;6.728;2022-11-21T04:19:35;10.10;;;5.13;;
19084;SDS011;9675;51.538;6.728;2022-11-21T04:22:02;10.77;;;4.43;;
19084;SDS011;9675;51.538;6.728;2022-11-21T04:24:29;10.73;;;5.10;;
19084;SDS011;9675;51.538;6.728;2022-11-21T04:26:57;11.00;;;4.90;;
19084;SDS011;9675;51.538;6.728;2022-11-21T04:29:24;8.07;;;3.93;;
19084;SDS011;9675;51.538;6.728;2022-11-21T04:31:51;8.83;;;4.73;;
19084;SDS011;9675;51.538;6.728;2022-11-21T04:34:18;10.33;;;4.60;;
19084;SDS011;9675;51.538;6.728;2022-11-21T04:36:45;14.47;;;6.53;;
19084;SDS011;9675;51.538;6.728;2022-11-21T04:39:12;13.23;;;5.63;;
19084;SDS011;9675;51.538;6.728;2022-11-21T04:41:39;15.53;;;6.77;;
19084;SDS011;9675;51.538;6.728;2022-11-21T04:44:08;9.90;;;3.90;;
19084;SDS011;9675;51.538;6.728;2022-11-21T04:46:35;14.73;;;6.47;;
19084;SDS011;9675;51.538;6.728;2022-11-21T04:49:02;14.57;;;6.60;;
19084;SDS011;9675;51.538;6.728;2022-11-21T04:51:29;13.47;;;6.10;;
19084;SDS011;9675;51.538;6.728;2022-11-21T04:53:56;12.83;;;6.10;;
19084;SDS011;9675;51.538;6.728;2022-11-21T04:56:23;15.20;;;7.47;;
19084;SDS011;9675;51.538;6.728;2022-11-21T04:58:50;16.87;;;7.70;;
19084;SDS011;9675;51.538;6.728;2022-11-21T05:01:19;22.07;;;8.33;;
19084;SDS011;9675;51.538;6.728;2022-11-21T05:03:46;12.13;;;5.17;;
19084;SDS011;9675;51.538;6.728;2022-11-21T05:06:13;10.77;;;4.87;;
19084;SDS011;9675;51.538;6.728;2022-11-21T05:08:40;13.67;;;6.07;;
19084;SDS011;9675;51.538;6.728;2022-11-21T05:11:07;16.97;;;7.00;;
19084;SDS011;9675;51.538;6.728;2022-11-21T05:13:52;14.53;;;4.90;;
19084;SDS011;9675;51.538;6.728;2022-11-21T05:16:20;11.43;;;5.00;;
19084;SDS011;9675;51.538;6.728;2022-11-21T05:18:47;9.50;;;5.03;;
19084;SDS011;9675;51.538;6.728;2022-11-21T05:21:14;11.03;;;4.17;;
19084;SDS011;9675;51.538;6.728;2022-11-21T05:23:41;21.33;;;5.33;;
19084;SDS011;9675;51.538;6.728;2022-11-21T05:26:08;9.33;;;4.13;;
19084;SDS011;9675;51.538;6.728;2022-11-21T05:28:35;10.10;;;3.83;;
19084;SDS011;9675;51.538;6.728;2022-11-21T05:31:02;14.43;;;5.30;;
19084;SDS011;9675;51.538;6.728;2022-11-21T05:33:30;12.67;;;5.30;;
19084;SDS011;9675;51.538;6.728;2022-11-21T05:35:58;11.40;;;5.67;;
19084;SDS011;9675;51.538;6.728;2022-11-21T05:38:25;13.53;;;3.93;;
19084;SDS011;9675;51.538;6.728;2022-11-21T05:40:52;9.70;;;4.07;;
19084;SDS011;9675;51.538;6.728;2022-11-21T05:43:19;7.50;;;3.73;;
19084;SDS011;9675;51.538;6.728;2022-11-21T05:46:03;9.10;;;4.57;;
19084;SDS011;9675;51.538;6.728;2022-11-21T05:48:32;12.40;;;5.60;;
19084;SDS011;9675;51.538;6.728;2022-11-21T05:51:00;10.53;;;5.20;;
19084;SDS011;9675;51.538;6.728;2022-11-21T05:53:28;12.27;;;3.87;;
19084;SDS011;9675;51.538;6.728;2022-11-21T05:55:55;11.30;;;4.13;;
19084;SDS011;9675;51.538;6.728;2022-11-21T05:58:27;11.23;;;4.33;;
19084;SDS011;9675;51.538;6.728;2022-11-21T06:00:55;8.87;;;4.37;;
19084;SDS011;9675;51.538;6.728;2022-11-21T06:03:23;8.83;;;4.20;;
19084;SDS011;9675;51.538;6.728;2022-11-21T06:05:56;15.47;;;4.87;;
19084;SDS011;9675;51.538;6.728;2022-11-21T06:08:25;10.53;;;4.37;;
19084;SDS011;9675;51.538;6.728;2022-11-21T06:10:53;13.53;;;5.20;;
19084;SDS011;9675;51.538;6.728;2022-11-21T06:13:20;11.83;;;4.33;;
19084;SDS011;9675;51.538;6.728;2022-11-21T06:15:56;12.00;;;5.20;;
19084;SDS011;9675;51.538;6.728;2022-11-21T06:18:26;14.17;;;4.07;;
19084;SDS011;9675;51.538;6.728;2022-11-21T06:21:00;7.53;;;3.87;;
19084;SDS011;9675;51.538;6.728;2022-11-21T06:23:28;10.63;;;4.90;;
19084;SDS011;9675;51.538;6.728;2022-11-21T06:25:56;9.57;;;4.67;;
19084;SDS011;9675;51.538;6.728;2022-11-21T06:28:25;7.77;;;3.70;;
19084;SDS011;9675;51.538;6.728;2022-11-21T06:30:55;14.30;;;5.10;;
19084;SDS011;9675;51.538;6.728;2022-11-21T06:33:22;12.27;;;4.93;;
19084;SDS011;9675;51.538;6.728;2022-11-21T06:35:49;12.63;;;5.27;;
19084;SDS011;9675;51.538;6.728;2022-11-21T06:38:17;10.37;;;4.93;;
19084;SDS011;9675;51.538;6.728;2022-11-21T06:40:44;14.40;;;4.37;;
19084;SDS011;9675;51.538;6.728;2022-11-21T06:43:11;16.90;;;5.30;;
19084;SDS011;9675;51.538;6.728;2022-11-21T06:45:38;8.80;;;4.27;;
19084;SDS011;9675;51.538;6.728;2022-11-21T06:48:05;13.77;;;6.20;;
19084;SDS011;9675;51.538;6.728;2022-11-21T06:50:33;7.50;;;3.97;;
19084;SDS011;9675;51.538;6.728;2022-11-21T06:53:00;9.77;;;4.80;;
19084;SDS011;9675;51.538;6.728;2022-11-21T06:55:29;13.73;;;5.50;;
19084;SDS011;9675;51.538;6.728;2022-11-21T06:57:57;15.10;;;5.10;;
19084;SDS011;9675;51.538;6.728;2022-11-21T07:00:24;27.17;;;7.30;;
19084;SDS011;9675;51.538;6.728;2022-11-21T07:02:52;22.03;;;7.83;;
19084;SDS011;9675;51.538;6.728;2022-11-21T07:05:19;24.17;;;7.67;;
19084;SDS011;9675;51.538;6.728;2022-11-21T07:07:46;16.67;;;6.37;;
19084;SDS011;9675;51.538;6.728;2022-11-21T07:10:13;14.50;;;5.40;;
19084;SDS011;9675;51.538;6.728;2022-11-21T07:12:42;13.57;;;5.10;;
19084;SDS011;9675;51.538;6.728;2022-11-21T07:15:26;12.60;;;4.70;;
19084;SDS011;9675;51.538;6.728;2022-11-21T07:17:53;13.87;;;5.73;;
19084;SDS011;9675;51.538;6.728;2022-11-21T07:20:24;10.33;;;4.30;;
19084;SDS011;9675;51.538;6.728;2022-11-21T07:22:52;17.07;;;6.93;;
19084;SDS011;9675;51.538;6.728;2022-11-21T07:25:19;17.43;;;5.63;;
19084;SDS011;9675;51.538;6.728;2022-11-21T07:27:48;21.93;;;7.93;;
19084;SDS011;9675;51.538;6.728;2022-11-21T07:30:15;21.03;;;8.73;;
19084;SDS011;9675;51.538;6.728;2022-11-21T07:32:42;23.43;;;9.30;;
19084;SDS011;9675;51.538;6.728;2022-11-21T07:35:10;23.00;;;6.90;;
19084;SDS011;9675;51.538;6.728;2022-11-21T07:37:37;19.17;;;7.40;;
19084;SDS011;9675;51.538;6.728;2022-11-21T07:40:05;18.87;;;6.67;;
19084;SDS011;9675;51.538;6.728;2022-11-21T07:42:33;17.40;;;5.77;;
19084;SDS011;9675;51.538;6.728;2022-11-21T07:45:01;13.60;;;5.67;;
19084;SDS011;9675;51.538;6.728;2022-11-21T07:47:29;13.80;;;5.93;;
19084;SDS011;9675;51.538;6.728;2022-11-21T07:49:56;14.53;;;6.50;;
19084;SDS011;9675;51.538;6.728;2022-11-21T07:52:23;17.10;;;5.20;;
19084;SDS011;9675;51.538;6.728;2022-11-21T07:54:50;15.20;;;5.00;;
19084;SDS011;9675;51.538;6.728;2022-11-21T07:57:17;18.27;;;6.23;;
19084;SDS011;9675;51.538;6.728;2022-11-21T07:59:44;12.00;;;5.23;;
19084;SDS011;9675;51.538;6.728;2022-11-21T08:02:15;14.87;;;3.67;;
19084;SDS011;9675;51.538;6.728;2022-11-21T08:04:45;16.40;;;5.50;;
19084;SDS011;9675;51.538;6.728;2022-11-21T08:07:12;15.37;;;7.43;;
19084;SDS011;9675;51.538;6.728;2022-11-21T08:09:39;20.00;;;7.03;;
19084;SDS011;9675;51.538;6.728;2022-11-21T08:12:07;20.77;;;6.03;;
19084;SDS011;9675;51.538;6.728;2022-11-21T08:14:36;11.37;;;6.13;;
19084;SDS011;9675;51.538;6.728;2022-11-21T08:17:03;23.03;;;7.00;;
19084;SDS011;9675;51.538;6.728;2022-11-21T08:19:33;14.10;;;7.63;;
19084;SDS011;9675;51.538;6.728;2022-11-21T08:22:00;18.50;;;6.77;;
19084;SDS011;9675;51.538;6.728;2022-11-21T08:24:27;17.23;;;6.60;;
19084;SDS011;9675;51.538;6.728;2022-11-21T08:26:54;14.70;;;6.23;;
19084;SDS011;9675;51.538;6.728;2022-11-21T08:29:21;20.30;;;6.40;;
19084;SDS011;9675;51.538;6.728;2022-11-21T08:31:48;15.37;;;6.40;;
19084;SDS011;9675;51.538;6.728;2022-11-21T08:34:15;16.70;;;6.57;;
19084;SDS011;9675;51.538;6.728;2022-11-21T08:36:43;16.03;;;6.50;;
19084;SDS011;9675;51.538;6.728;2022-11-21T08:39:10;23.93;;;8.53;;
19084;SDS011;9675;51.538;6.728;2022-11-21T08:41:37;16.07;;;6.67;;
19084;SDS011;9675;51.538;6.728;2022-11-21T08:44:22;22.13;;;6.07;;
19084;SDS011;9675;51.538;6.728;2022-11-21T08:46:49;24.37;;;8.00;;
19084;SDS011;9675;51.538;6.728;2022-11-21T08:49:16;20.73;;;7.90;;
19084;SDS011;9675;51.538;6.728;2022-11-21T08:51:46;14.30;;;5.93;;
19084;SDS011;9675;51.538;6.728;2022-11-21T08:54:13;17.30;;;7.07;;
19084;SDS011;9675;51.538;6.728;2022-11-21T08:56:40;23.20;;;8.73;;
19084;SDS011;9675;51.538;6.728;2022-11-21T08:59:07;24.17;;;6.57;;
19084;SDS011;9675;51.538;6.728;2022-11-21T09:01:34;18.50;;;7.03;;
19084;SDS011;9675;51.538;6.728;2022-11-21T09:04:02;22.33;;;7.57;;
19084;SDS011;9675;51.538;6.728;2022-11-21T09:06:29;19.67;;;7.77;;
19084;SDS011;9675;51.538;6.728;2022-11-21T09:08:58;17.33;;;6.63;;
19084;SDS011;9675;51.538;6.728;2022-11-21T09:11:25;18.93;;;7.13;;
19084;SDS011;9675;51.538;6.728;2022-11-21T09:13:52;22.13;;;8.00;;
19084;SDS011;9675;51.538;6.728;2022-11-21T09:16:37;15.63;;;6.13;;
19084;SDS011;9675;51.538;6.728;2022-11-21T09:19:22;22.03;;;8.00;;
19084;SDS011;9675;51.538;6.728;2022-11-21T09:21:51;24.97;;;6.60;;
19084;SDS011;9675;51.538;6.728;2022-11-21T09:24:20;30.13;;;8.77;;
19084;SDS011;9675;51.538;6.728;2022-11-21T09:26:47;22.90;;;7.87;;
19084;SDS011;9675;51.538;6.728;2022-11-21T09:29:14;15.20;;;5.87;;
19084;SDS011;9675;51.538;6.728;2022-11-21T09:31:41;24.77;;;7.83;;
19084;SDS011;9675;51.538;6.728;2022-11-21T09:34:08;23.83;;;8.10;;
19084;SDS011;9675;51.538;6.728;2022-11-21T09:36:36;22.93;;;8.30;;
19084;SDS011;9675;51.538;6.728;2022-11-21T09:39:03;30.77;;;8.20;;
19084;SDS011;9675;51.538;6.728;2022-11-21T09:41:33;17.57;;;7.47;;
19084;SDS011;9675;51.538;6.728;2022-11-21T09:44:32;22.20;;;6.87;;
19084;SDS011;9675;51.538;6.728;2022-11-21T09:47:17;23.63;;;7.77;;
19084;SDS011;9675;51.538;6.728;2022-11-21T09:49:51;18.67;;;7.17;;
19084;SDS011;9675;51.538;6.728;2022-11-21T09:52:26;22.70;;;7.77;;
19084;SDS011;9675;51.538;6.728;2022-11-21T09:55:02;23.50;;;7.23;;
19084;SDS011;9675;51.538;6.728;2022-11-21T09:57:42;21.43;;;7.27;;
19084;SDS011;9675;51.538;6.728;2022-11-21T10:00:15;17.20;;;7.37;;
19084;SDS011;9675;51.538;6.728;2022-11-21T10:02:47;39.43;;;10.27;;
19084;SDS011;9675;51.538;6.728;2022-11-21T10:05:15;31.10;;;9.53;;
19084;SDS011;9675;51.538;6.728;2022-11-21T10:07:50;21.93;;;9.00;;
19084;SDS011;9675;51.538;6.728;2022-11-21T10:10:28;24.23;;;9.77;;
19084;SDS011;9675;51.538;6.728;2022-11-21T10:13:18;28.97;;;8.50;;
19084;SDS011;9675;51.538;6.728;2022-11-21T10:16:12;23.67;;;9.43;;
19084;SDS011;9675;51.538;6.728;2022-11-21T10:19:10;28.87;;;10.87;;
19084;SDS011;9675;51.538;6.728;2022-11-21T10:22:09;32.20;;;11.13;;
19084;SDS011;9675;51.538;6.728;2022-11-21T10:25:02;19.90;;;7.87;;
19084;SDS011;9675;51.538;6.728;2022-11-21T10:27:40;33.50;;;10.00;;
19084;SDS011;9675;51.538;6.728;2022-11-21T10:30:16;33.37;;;9.97;;
19084;SDS011;9675;51.538;6.728;2022-11-21T10:32:46;40.30;;;12.57;;
19084;SDS011;9675;51.538;6.728;2022-11-21T10:35:21;43.43;;;11.23;;
19084;SDS011;9675;51.538;6.728;2022-11-21T10:37:50;25.37;;;9.90;;
19084;SDS011;9675;51.538;6.728;2022-11-21T10:40:23;33.90;;;10.70;;
19084;SDS011;9675;51.538;6.728;2022-11-21T10:43:01;25.23;;;9.53;;
19084;SDS011;9675;51.538;6.728;2022-11-21T10:45:53;21.90;;;8.40;;
19084;SDS011;9675;51.538;6.728;2022-11-21T10:48:20;20.57;;;7.07;;
19084;SDS011;9675;51.538;6.728;2022-11-21T10:54:02;25.37;;;9.50;;
19084;SDS011;9675;51.538;6.728;2022-11-21T10:57:05;23.87;;;7.43;;
19084;SDS011;9675;51.538;6.728;2022-11-21T10:59:38;28.90;;;8.27;;
19084;SDS011;9675;51.538;6.728;2022-11-21T11:05:15;24.93;;;9.13;;
19084;SDS011;9675;51.538;6.728;2022-11-21T11:07:57;18.00;;;6.67;;
19084;SDS011;9675;51.538;6.728;2022-11-21T11:10:31;15.67;;;6.93;;
19084;SDS011;9675;51.538;6.728;2022-11-21T11:13:01;23.87;;;9.10;;
19084;SDS011;9675;51.538;6.728;2022-11-21T11:15:53;19.53;;;8.27;;
19084;SDS011;9675;51.538;6.728;2022-11-21T11:18:28;14.23;;;5.37;;
19084;SDS011;9675;51.538;6.728;2022-11-21T11:21:08;22.67;;;7.93;;
19084;SDS011;9675;51.538;6.728;2022-11-21T11:23:47;21.93;;;6.90;;
19084;SDS011;9675;51.538;6.728;2022-11-21T11:26:17;14.87;;;6.37;;
19084;SDS011;9675;51.538;6.728;2022-11-21T11:28:51;12.27;;;6.47;;
19084;SDS011;9675;51.538;6.728;2022-11-21T11:31:23;19.87;;;7.93;;
19084;SDS011;9675;51.538;6.728;2022-11-21T11:33:53;15.57;;;5.27;;
19084;SDS011;9675;51.538;6.728;2022-11-21T11:36:29;10.03;;;3.90;;
19084;SDS011;9675;51.538;6.728;2022-11-21T11:39:13;11.87;;;5.33;;
19084;SDS011;9675;51.538;6.728;2022-11-21T11:42:04;8.53;;;5.10;;
19084;SDS011;9675;51.538;6.728;2022-11-21T11:45:23;11.20;;;4.80;;
19084;SDS011;9675;51.538;6.728;2022-11-21T11:48:36;10.47;;;4.73;;
19084;SDS011;9675;51.538;6.728;2022-11-21T11:51:08;15.77;;;5.83;;
19084;SDS011;9675;51.538;6.728;2022-11-21T11:53:54;18.17;;;5.57;;
19084;SDS011;9675;51.538;6.728;2022-11-21T11:56:29;12.40;;;4.00;;
19084;SDS011;9675;51.538;6.728;2022-11-21T11:59:02;12.70;;;5.80;;
19084;SDS011;9675;51.538;6.728;2022-11-21T12:01:38;12.37;;;5.07;;
19084;SDS011;9675;51.538;6.728;2022-11-21T12:04:12;11.13;;;5.17;;
19084;SDS011;9675;51.538;6.728;2022-11-21T12:06:44;7.60;;;3.90;;
19084;SDS011;9675;51.538;6.728;2022-11-21T12:09:21;11.17;;;4.47;;
19084;SDS011;9675;51.538;6.728;2022-11-21T12:11:58;10.37;;;4.80;;
19084;SDS011;9675;51.538;6.728;2022-11-21T12:14:48;14.50;;;6.57;;
19084;SDS011;9675;51.538;6.728;2022-11-21T12:17:46;5.70;;;3.63;;
19084;SDS011;9675;51.538;6.728;2022-11-21T12:20:24;8.67;;;4.80;;
19084;SDS011;9675;51.538;6.728;2022-11-21T12:23:00;8.63;;;4.47;;
19084;SDS011;9675;51.538;6.728;2022-11-21T12:25:33;14.27;;;4.77;;
19084;SDS011;9675;51.538;6.728;2022-11-21T12:28:09;16.10;;;6.80;;
19084;SDS011;9675;51.538;6.728;2022-11-21T12:30:50;10.97;;;5.00;;
19084;SDS011;9675;51.538;6.728;2022-11-21T12:33:35;16.27;;;5.60;;
19084;SDS011;9675;51.538;6.728;2022-11-21T12:36:16;19.10;;;5.70;;
19084;SDS011;9675;51.538;6.728;2022-11-21T12:39:11;17.97;;;4.90;;
19084;SDS011;9675;51.538;6.728;2022-11-21T12:42:11;12.90;;;5.53;;
19084;SDS011;9675;51.538;6.728;2022-11-21T12:45:13;11.40;;;4.47;;
19084;SDS011;9675;51.538;6.728;2022-11-21T12:51:27;7.73;;;3.40;;
19084;SDS011;9675;51.538;6.728;2022-11-21T12:57:45;11.03;;;5.03;;
19084;SDS011;9675;51.538;6.728;2022-11-21T13:00:41;14.33;;;5.10;;
19084;SDS011;9675;51.538;6.728;2022-11-21T13:03:37;9.87;;;4.93;;
19084;SDS011;9675;51.538;6.728;2022-11-21T13:06:13;11.27;;;5.57;;
19084;SDS011;9675;51.538;6.728;2022-11-21T13:08:47;15.30;;;5.40;;
19084;SDS011;9675;51.538;6.728;2022-11-21T13:11:24;10.73;;;5.03;;
19084;SDS011;9675;51.538;6.728;2022-11-21T13:14:28;9.47;;;3.80;;
19084;SDS011;9675;51.538;6.728;2022-11-21T13:17:15;17.83;;;4.80;;
19084;SDS011;9675;51.538;6.728;2022-11-21T13:19:55;15.40;;;5.60;;
19084;SDS011;9675;51.538;6.728;2022-11-21T13:25:39;13.57;;;5.47;;
19084;SDS011;9675;51.538;6.728;2022-11-21T13:31:00;12.43;;;5.10;;
19084;SDS011;9675;51.538;6.728;2022-11-21T13:33:51;9.37;;;4.00;;
19084;SDS011;9675;51.538;6.728;2022-11-21T13:36:35;13.00;;;4.07;;
19084;SDS011;9675;51.538;6.728;2022-11-21T13:42:09;10.37;;;4.67;;
19084;SDS011;9675;51.538;6.728;2022-11-21T13:44:57;8.87;;;3.60;;
19084;SDS011;9675;51.538;6.728;2022-11-21T13:47:55;7.43;;;3.73;;
19084;SDS011;9675;51.538;6.728;2022-11-21T13:51:13;4.37;;;2.30;;
19084;SDS011;9675;51.538;6.728;2022-11-21T13:54:23;4.43;;;2.83;;
19084;SDS011;9675;51.538;6.728;2022-11-21T13:57:38;7.70;;;2.77;;
19084;SDS011;9675;51.538;6.728;2022-11-21T14:00:27;5.03;;;2.63;;
19084;SDS011;9675;51.538;6.728;2022-11-21T14:03:26;6.97;;;2.60;;
19084;SDS011;9675;51.538;6.728;2022-11-21T14:09:05;5.90;;;2.93;;
19084;SDS011;9675;51.538;6.728;2022-11-21T14:11:53;4.93;;;2.10;;
19084;SDS011;9675;51.538;6.728;2022-11-21T14:14:28;8.23;;;2.70;;
19084;SDS011;9675;51.538;6.728;2022-11-21T14:20:15;6.43;;;2.60;;
19084;SDS011;9675;51.538;6.728;2022-11-21T14:22:52;12.07;;;2.97;;
19084;SDS011;9675;51.538;6.728;2022-11-21T14:25:23;8.97;;;4.30;;
19084;SDS011;9675;51.538;6.728;2022-11-21T14:28:02;8.57;;;4.27;;
19084;SDS011;9675;51.538;6.728;2022-11-21T14:30:35;7.50;;;3.17;;
19084;SDS011;9675;51.538;6.728;2022-11-21T14:33:18;7.37;;;3.07;;
19084;SDS011;9675;51.538;6.728;2022-11-21T14:35:57;10.03;;;3.50;;
19084;SDS011;9675;51.538;6.728;2022-11-21T14:38:29;9.53;;;3.40;;
19084;SDS011;9675;51.538;6.728;2022-11-21T14:44:14;7.33;;;3.43;;
19084;SDS011;9675;51.538;6.728;2022-11-21T14:46:46;7.83;;;3.63;;
19084;SDS011;9675;51.538;6.728;2022-11-21T14:49:18;5.37;;;3.23;;
19084;SDS011;9675;51.538;6.728;2022-11-21T14:51:57;7.67;;;3.30;;
19084;SDS011;9675;51.538;6.728;2022-11-21T14:54:42;11.00;;;3.63;;
19084;SDS011;9675;51.538;6.728;2022-11-21T14:57:17;14.13;;;3.33;;
19084;SDS011;9675;51.538;6.728;2022-11-21T14:59:49;7.27;;;2.97;;
19084;SDS011;9675;51.538;6.728;2022-11-21T15:02:18;5.93;;;2.53;;
19084;SDS011;9675;51.538;6.728;2022-11-21T15:04:50;6.70;;;2.40;;
19084;SDS011;9675;51.538;6.728;2022-11-21T15:07:21;6.77;;;2.87;;
19084;SDS011;9675;51.538;6.728;2022-11-21T15:09:52;3.93;;;2.50;;
19084;SDS011;9675;51.538;6.728;2022-11-21T15:12:21;7.10;;;2.63;;
19084;SDS011;9675;51.538;6.728;2022-11-21T15:14:56;5.23;;;2.20;;
19084;SDS011;9675;51.538;6.728;2022-11-21T15:17:27;8.70;;;3.37;;
19084;SDS011;9675;51.538;6.728;2022-11-21T15:20:03;7.50;;;3.00;;
19084;SDS011;9675;51.538;6.728;2022-11-21T15:22:43;6.20;;;3.03;;
19084;SDS011;9675;51.538;6.728;2022-11-21T15:25:14;7.67;;;3.07;;
19084;SDS011;9675;51.538;6.728;2022-11-21T15:27:44;7.27;;;2.93;;
19084;SDS011;9675;51.538;6.728;2022-11-21T15:30:23;6.60;;;3.27;;
19084;SDS011;9675;51.538;6.728;2022-11-21T15:33:03;6.30;;;3.27;;
19084;SDS011;9675;51.538;6.728;2022-11-21T15:35:42;13.30;;;3.23;;
19084;SDS011;9675;51.538;6.728;2022-11-21T15:38:26;4.87;;;2.37;;
19084;SDS011;9675;51.538;6.728;2022-11-21T15:40:57;7.90;;;2.50;;
19084;SDS011;9675;51.538;6.728;2022-11-21T15:43:38;5.33;;;3.00;;
19084;SDS011;9675;51.538;6.728;2022-11-21T15:46:15;6.87;;;3.60;;
19084;SDS011;9675;51.538;6.728;2022-11-21T15:48:45;9.87;;;2.80;;
19084;SDS011;9675;51.538;6.728;2022-11-21T15:51:15;8.07;;;3.50;;
19084;SDS011;9675;51.538;6.728;2022-11-21T15:53:44;8.70;;;4.07;;
19084;SDS011;9675;51.538;6.728;2022-11-21T15:56:11;13.50;;;4.87;;
19084;SDS011;9675;51.538;6.728;2022-11-21T15:58:42;13.50;;;6.07;;